Time;durP1;ratioP1;P1;durP2;ratioP2;P2;SDS_P1;SDS_P2;PMS_P1;PMS_P2;Temp;Humidity;BMP_temperature;BMP_pressure;BME280_temperature;BME280_humidity;BME280_pressure;Samples;Min_cycle;Max_cycle;Signal;HPM_P1;HPM_P2
2022/07/26 00:02:22;;;;;;;15.15;3.35;;;;;;;17.17;100.00;165055.97;5032926;28;20035;-62
2022/07/26 00:04:48;;;;;;;17.30;3.67;;;;;;;17.20;100.00;165064.13;5032483;28;20044;-62
2022/07/26 00:07:13;;;;;;;9.75;4.55;;;;;;;17.18;100.00;165060.06;5032597;28;20530;-61
2022/07/26 00:09:39;;;;;;;12.02;2.63;;;;;;;17.13;100.00;165046.50;5031833;28;20049;-62
2022/07/26 00:12:05;;;;;;;17.58;3.63;;;;;;;17.16;100.00;165053.31;5034314;28;20484;-62
2022/07/26 00:14:30;;;;;;;14.73;3.33;;;;;;;17.10;100.00;165039.72;5018865;28;20032;-62
2022/07/26 00:16:56;;;;;;;11.70;4.85;;;;;;;17.09;100.00;165035.69;5019695;28;20025;-62
2022/07/26 00:19:21;;;;;;;11.48;3.92;;;;;;;17.03;100.00;165020.75;5032043;28;20029;-61
2022/07/26 00:21:47;;;;;;;11.15;2.80;;;;;;;16.97;100.00;165004.50;5030982;28;20028;-62
2022/07/26 00:24:12;;;;;;;10.55;3.28;;;;;;;16.94;100.00;164997.75;5031494;28;20469;-62
2022/07/26 00:26:37;;;;;;;8.70;3.08;;;;;;;16.95;100.00;164999.06;5033677;28;20408;-62
2022/07/26 00:29:04;;;;;;;11.43;3.20;;;;;;;16.96;100.00;165001.78;5033314;28;20092;-62
2022/07/26 00:31:30;;;;;;;14.57;3.47;;;;;;;16.96;100.00;165001.78;5031952;28;20045;-62
2022/07/26 00:33:56;;;;;;;12.57;3.13;;;;;;;16.98;100.00;165007.22;5033044;28;20030;-61
2022/07/26 00:36:21;;;;;;;13.23;3.28;;;;;;;16.96;100.00;165001.78;5030725;28;20473;-62
2022/07/26 00:38:46;;;;;;;15.43;4.72;;;;;;;17.03;100.00;165020.75;5025384;28;20022;-62
2022/07/26 00:41:12;;;;;;;25.63;7.65;;;;;;;17.00;100.00;165012.66;5012130;28;20049;-62
2022/07/26 00:43:52;;;;;;;15.38;4.38;;;;;;;17.07;100.00;165031.63;5018021;28;20094;-62
2022/07/26 00:46:17;;;;;;;22.52;6.00;;;;;;;17.11;100.00;165042.44;5031730;28;20049;-62
2022/07/26 00:48:42;;;;;;;12.38;3.75;;;;;;;17.11;100.00;165042.44;5033252;28;20041;-62
2022/07/26 00:51:08;;;;;;;16.55;3.80;;;;;;;17.15;100.00;165050.59;5015875;28;20063;-62
2022/07/26 00:53:33;;;;;;;10.93;3.42;;;;;;;17.15;100.00;165050.59;5012839;28;20026;-62
2022/07/26 00:55:59;;;;;;;13.82;5.72;;;;;;;17.15;100.00;165050.59;5011385;28;20386;-62
2022/07/26 00:58:24;;;;;;;14.27;4.68;;;;;;;17.20;100.00;165064.13;5012553;28;20076;-62
2022/07/26 01:00:49;;;;;;;11.15;4.53;;;;;;;17.20;100.00;165065.47;5011980;28;20433;-63
2022/07/26 01:03:15;;;;;;;12.55;3.08;;;;;;;17.21;100.00;165066.84;5012978;28;20048;-62
2022/07/26 01:05:41;;;;;;;13.77;4.05;;;;;;;17.22;100.00;165069.56;5011261;28;20042;-62
2022/07/26 01:08:06;;;;;;;21.25;4.57;;;;;;;17.28;100.00;165085.81;5030925;28;20037;-63
2022/07/26 01:10:32;;;;;;;21.20;4.63;;;;;;;17.30;100.00;165091.25;5021164;28;20520;-62
2022/07/26 01:12:57;;;;;;;22.95;5.43;;;;;;;17.28;100.00;165085.81;5012640;28;20021;-62
2022/07/26 01:15:22;;;;;;;14.90;5.13;;;;;;;17.29;100.00;165088.53;5030218;28;20416;-63
2022/07/26 01:17:48;;;;;;;12.88;4.32;;;;;;;17.30;100.00;165091.25;5032697;28;20033;-62
2022/07/26 01:20:13;;;;;;;16.48;4.20;;;;;;;17.33;100.00;165099.34;5030041;28;20041;-62
2022/07/26 01:22:39;;;;;;;18.13;3.80;;;;;;;17.34;100.00;165102.06;5031791;28;20107;-62
2022/07/26 01:25:04;;;;;;;17.80;5.78;;;;;;;17.31;100.00;165093.97;5031122;28;20037;-62
2022/07/26 01:27:30;;;;;;;18.60;5.03;;;;;;;17.32;100.00;165095.31;5032143;28;20046;-62
2022/07/26 01:29:55;;;;;;;17.00;3.70;;;;;;;17.35;100.00;165103.47;5030428;28;20124;-62
2022/07/26 01:32:21;;;;;;;11.25;4.35;;;;;;;17.37;100.00;165110.22;5012480;28;20121;-62
2022/07/26 01:34:46;;;;;;;12.38;4.88;;;;;;;17.38;100.00;165112.94;5017457;28;20515;-62
2022/07/26 01:37:11;;;;;;;15.38;4.95;;;;;;;17.38;100.00;165111.56;5031840;28;20029;-63
2022/07/26 01:39:37;;;;;;;16.00;4.68;;;;;;;17.38;100.00;165111.56;5031172;28;20045;-62
2022/07/26 01:42:02;;;;;;;13.88;5.00;;;;;;;17.41;100.00;165121.03;5029849;28;20025;-63
2022/07/26 01:44:28;;;;;;;13.95;4.28;;;;;;;17.41;100.00;165119.72;5030261;28;20025;-63
2022/07/26 01:46:53;;;;;;;14.15;3.10;;;;;;;17.41;100.00;165121.03;5032151;28;20101;-62
2022/07/26 01:49:18;;;;;;;21.98;4.88;;;;;;;17.37;100.00;165110.22;5018497;28;20473;-63
2022/07/26 01:51:44;;;;;;;16.98;4.90;;;;;;;17.36;100.00;165106.13;5026542;28;20048;-62
2022/07/26 01:54:09;;;;;;;12.23;4.03;;;;;;;17.29;100.00;165088.53;5031662;28;20083;-63
2022/07/26 01:56:35;;;;;;;22.02;5.35;;;;;;;17.32;100.00;165096.63;5023022;28;20061;-62
2022/07/26 01:59:00;;;;;;;12.27;5.05;;;;;;;17.27;100.00;165083.09;5011762;28;20030;-62
2022/07/26 02:01:25;;;;;;;17.35;4.35;;;;;;;17.22;100.00;165070.91;5012131;28;20478;-63
2022/07/26 02:03:51;;;;;;;18.13;4.22;;;;;;;17.15;100.00;165050.59;5016341;28;20642;-62
2022/07/26 02:06:16;;;;;;;16.13;4.45;;;;;;;17.12;100.00;165045.16;5009816;28;20041;-62
2022/07/26 02:08:42;;;;;;;13.13;4.70;;;;;;;17.06;100.00;165027.53;5012006;28;20030;-62
2022/07/26 02:11:07;;;;;;;15.80;4.93;;;;;;;17.03;100.00;165020.75;5010446;28;20042;-62
2022/07/26 02:13:38;;;;;;;14.38;4.80;;;;;;;16.96;100.00;165003.19;5011483;28;20030;-62
2022/07/26 02:16:06;;;;;;;18.70;5.47;;;;;;;16.92;100.00;164990.94;5010311;28;20133;-62
2022/07/26 02:18:32;;;;;;;11.13;3.75;;;;;;;16.87;100.00;164977.34;5011656;28;20033;-62
2022/07/26 02:20:59;;;;;;;15.70;3.90;;;;;;;16.79;100.00;164958.38;5017671;28;20483;-62
2022/07/26 02:23:25;;;;;;;18.70;6.63;;;;;;;16.76;100.00;164950.28;5031056;28;20090;-62
2022/07/26 02:25:51;;;;;;;18.55;3.88;;;;;;;16.74;100.00;164944.84;5030138;28;20034;-62
2022/07/26 02:28:17;;;;;;;6.03;3.72;;;;;;;16.70;100.00;164934.03;5029390;28;20099;-62
2022/07/26 02:30:44;;;;;;;12.00;3.20;;;;;;;16.66;100.00;164923.16;5029921;28;20041;-62
2022/07/26 02:33:09;;;;;;;8.25;3.38;;;;;;;16.61;100.00;164910.97;5031086;28;20036;-62
2022/07/26 02:35:35;;;;;;;16.10;4.97;;;;;;;16.63;100.00;164916.41;5029417;28;20041;-62
2022/07/26 02:38:02;;;;;;;11.27;4.60;;;;;;;16.61;100.00;164909.63;5031221;28;20112;-63
2022/07/26 02:40:27;;;;;;;6.72;4.25;;;;;;;16.57;100.00;164898.81;5028733;28;20052;-64
2022/07/26 02:42:52;;;;;;;11.82;3.30;;;;;;;16.53;100.00;164889.28;5030435;28;20053;-64
2022/07/26 02:45:18;;;;;;;14.02;6.78;;;;;;;16.47;100.00;164874.41;5029622;28;20115;-64
2022/07/26 02:47:48;;;;;;;11.57;3.30;;;;;;;16.41;100.00;164856.78;5031434;28;20462;-64
2022/07/26 02:50:16;;;;;;;17.05;4.75;;;;;;;16.37;100.00;164847.31;5009440;28;20440;-64
2022/07/26 02:52:41;;;;;;;13.00;5.05;;;;;;;16.34;100.00;164840.53;5011732;28;20032;-64
2022/07/26 02:55:07;;;;;;;10.07;4.18;;;;;;;16.32;100.00;164833.78;5013399;28;20045;-64
2022/07/26 02:57:32;;;;;;;12.32;4.20;;;;;;;16.28;100.00;164822.91;5030407;28;20025;-64
2022/07/26 02:59:58;;;;;;;10.40;4.35;;;;;;;16.22;100.00;164806.69;5012484;28;20096;-64
2022/07/26 03:02:23;;;;;;;9.57;3.80;;;;;;;16.15;100.00;164789.09;5019701;28;20033;-64
2022/07/26 03:04:48;;;;;;;10.68;4.13;;;;;;;16.09;100.00;164774.19;5028845;28;20041;-64
2022/07/26 03:07:14;;;;;;;10.02;3.65;;;;;;;16.05;100.00;164763.31;5030813;28;20033;-64
2022/07/26 03:09:39;;;;;;;19.33;5.32;;;;;;;16.02;100.00;164755.22;5029562;28;20068;-62
2022/07/26 03:12:04;;;;;;;9.30;5.55;;;;;;;16.01;100.00;164752.53;5026551;28;20516;-62
2022/07/26 03:14:30;;;;;;;9.98;3.55;;;;;;;16.00;100.00;164749.81;5029190;28;20376;-61
2022/07/26 03:16:55;;;;;;;21.02;4.45;;;;;;;15.94;100.00;164733.56;5020466;28;20084;-61
2022/07/26 03:19:20;;;;;;;18.08;3.85;;;;;;;15.92;100.00;164728.13;5013102;28;20037;-61
2022/07/26 03:21:46;;;;;;;9.30;4.55;;;;;;;15.93;100.00;164730.84;5026266;28;20151;-61
2022/07/26 03:24:11;;;;;;;16.38;4.25;;;;;;;15.94;100.00;164734.91;5034809;28;20424;-62
2022/07/26 03:26:36;;;;;;;8.52;3.97;;;;;;;15.97;100.00;164741.72;5027505;28;20436;-63
2022/07/26 03:29:02;;;;;;;13.13;4.75;;;;;;;15.99;100.00;164747.09;5030336;28;20026;-63
2022/07/26 03:31:27;;;;;;;15.48;3.72;;;;;;;16.02;100.00;164755.22;5013690;28;20100;-61
2022/07/26 03:33:52;;;;;;;9.40;5.22;;;;;;;16.08;100.00;164771.47;5025626;28;20080;-62
2022/07/26 03:36:18;;;;;;;18.98;4.50;;;;;;;16.09;100.00;164772.81;5032642;28;20037;-61
2022/07/26 03:38:43;;;;;;;16.02;4.95;;;;;;;16.08;100.00;164771.47;5034442;28;20026;-64
2022/07/26 03:41:08;;;;;;;9.77;3.40;;;;;;;16.09;100.00;164774.19;5028737;28;20038;-64
2022/07/26 03:43:34;;;;;;;16.55;5.50;;;;;;;16.11;100.00;164779.63;5033321;28;20029;-63
2022/07/26 03:45:59;;;;;;;11.20;4.45;;;;;;;16.08;100.00;164770.16;5013296;28;20054;-64
2022/07/26 03:48:24;;;;;;;14.43;4.75;;;;;;;16.08;100.00;164771.47;5032105;28;20080;-64
2022/07/26 03:50:50;;;;;;;18.63;5.55;;;;;;;16.04;100.00;164760.66;5017287;28;20464;-63
2022/07/26 03:53:15;;;;;;;14.95;3.92;;;;;;;16.08;100.00;164771.47;5014256;28;20387;-64
2022/07/26 03:58:24;;;;;;;18.35;6.28;;;;;;;16.12;100.00;164780.94;5014238;28;20112;-62
2022/07/26 04:00:49;;;;;;;12.35;4.70;;;;;;;16.14;100.00;164786.38;5013075;28;20053;-62
2022/07/26 04:03:14;;;;;;;13.82;5.18;;;;;;;16.22;100.00;164806.69;5014090;28;20034;-62
2022/07/26 04:05:40;;;;;;;12.75;5.03;;;;;;;16.26;100.00;164817.53;5013098;28;20461;-62
2022/07/26 04:08:05;;;;;;;13.27;5.30;;;;;;;16.28;100.00;164822.91;5014181;28;20025;-62
2022/07/26 04:10:31;;;;;;;22.83;6.70;;;;;;;16.26;100.00;164817.53;5013186;28;20144;-64
2022/07/26 04:12:56;;;;;;;13.13;5.05;;;;;;;16.29;100.00;164825.63;5018817;28;20025;-64
2022/07/26 04:15:21;;;;;;;16.48;5.85;;;;;;;16.26;100.00;164817.53;5029168;28;20108;-64
2022/07/26 04:17:47;;;;;;;19.48;4.30;;;;;;;16.35;100.00;164841.88;5014870;28;20065;-64
2022/07/26 04:20:13;;;;;;;27.95;8.07;;;;;;;16.43;100.00;164863.56;5012256;28;20052;-63
2022/07/26 04:22:39;;;;;;;15.98;5.85;;;;;;;16.48;100.00;164877.13;5013872;28;20026;-63
2022/07/26 04:25:06;;;;;;;16.90;4.82;;;;;;;16.51;100.00;164883.91;5013552;28;20041;-64
2022/07/26 04:27:32;;;;;;;14.23;5.43;;;;;;;16.51;100.00;164883.91;5031112;28;20361;-65
2022/07/26 04:29:58;;;;;;;23.70;5.95;;;;;;;16.58;100.00;164902.88;5032097;28;20060;-64
2022/07/26 04:32:23;;;;;;;25.15;5.95;;;;;;;16.65;100.00;164921.84;5033220;28;20445;-64
2022/07/26 04:34:49;;;;;;;14.98;6.03;;;;;;;16.68;100.00;164927.25;5031444;28;20084;-65
2022/07/26 04:37:14;;;;;;;19.35;5.03;;;;;;;16.68;100.00;164928.59;5017634;28;20076;-64
2022/07/26 04:39:39;;;;;;;20.38;5.35;;;;;;;16.72;100.00;164939.41;5016116;28;20049;-64
2022/07/26 04:42:05;;;;;;;17.90;5.40;;;;;;;16.75;100.00;164947.56;5033278;28;20029;-65
2022/07/26 04:44:30;;;;;;;10.68;3.90;;;;;;;16.81;100.00;164963.81;5025018;28;20050;-64
2022/07/26 04:46:55;;;;;;;13.30;5.30;;;;;;;16.89;100.00;164982.78;5025783;28;20025;-64
2022/07/26 04:49:21;;;;;;;15.48;5.70;;;;;;;16.94;100.00;164996.41;5027588;28;20025;-64
2022/07/26 04:51:46;;;;;;;27.25;5.65;;;;;;;17.01;100.00;165015.38;5022600;28;20029;-64
2022/07/26 04:54:11;;;;;;;21.40;6.07;;;;;;;17.01;100.00;165015.38;5022067;28;20048;-65
2022/07/26 04:56:37;;;;;;;19.17;7.30;;;;;;;17.04;100.00;165023.47;5022046;28;20056;-64
2022/07/26 04:59:02;;;;;;;15.88;6.10;;;;;;;17.04;100.00;165023.47;5021188;28;20416;-64
2022/07/26 05:01:27;;;;;;;27.50;6.85;;;;;;;17.01;100.00;165015.38;5021610;28;20041;-63
2022/07/26 05:03:52;;;;;;;19.77;4.55;;;;;;;16.98;100.00;165007.22;5030912;28;20028;-63
2022/07/26 05:06:18;;;;;;;26.35;7.72;;;;;;;16.93;100.00;164993.69;5019629;28;20045;-62
2022/07/26 05:08:44;;;;;;;15.35;5.55;;;;;;;16.90;100.00;164985.50;5020604;28;20029;-60
2022/07/26 05:11:09;;;;;;;17.08;4.28;;;;;;;16.97;100.00;165004.50;5019819;28;20111;-64
2022/07/26 05:13:35;;;;;;;18.90;5.70;;;;;;;17.02;100.00;165016.72;5023071;28;20473;-64
2022/07/26 05:16:00;;;;;;;21.90;6.40;;;;;;;17.09;100.00;165037.00;5019122;28;20137;-65
2022/07/26 05:18:26;;;;;;;20.85;6.10;;;;;;;17.14;100.00;165049.22;5020040;28;20374;-65
2022/07/26 05:20:52;;;;;;;18.10;3.92;;;;;;;17.19;100.00;165061.41;5019162;28;20041;-65
2022/07/26 05:23:19;;;;;;;10.07;3.83;;;;;;;17.20;100.00;165064.13;5017421;28;20095;-60
2022/07/26 05:25:44;;;;;;;19.55;6.38;;;;;;;17.24;100.00;165074.94;5019705;28;20100;-61
2022/07/26 05:28:10;;;;;;;20.02;5.88;;;;;;;17.25;100.00;165077.66;5016703;28;20042;-61
2022/07/26 05:30:36;;;;;;;15.98;4.47;;;;;;;17.26;100.00;165080.38;5022889;28;20057;-61
2022/07/26 05:33:01;;;;;;;13.85;5.13;;;;;;;17.37;100.00;165110.22;5025452;28;20024;-61
2022/07/26 05:35:26;;;;;;;13.88;5.15;;;;;;;17.51;100.00;165145.44;5015314;28;20042;-62
2022/07/26 05:37:52;;;;;;;11.23;3.90;;;;;;;17.55;100.00;165157.66;5017948;28;20527;-64
2022/07/26 05:40:17;;;;;;;16.13;5.55;;;;;;;17.63;100.00;165176.63;5021250;28;20540;-65
2022/07/26 05:42:42;;;;;;;15.45;6.65;;;;;;;17.71;100.00;165199.66;5025892;28;20018;-64
2022/07/26 05:45:08;;;;;;;13.38;5.22;;;;;;;17.77;100.00;165215.91;5016704;28;20072;-63
2022/07/26 05:47:34;;;;;;;23.08;4.50;;;;;;;17.87;100.00;165240.31;5023162;28;20025;-62
2022/07/26 05:49:59;;;;;;;12.70;4.38;;;;;;;17.92;100.00;165255.25;5019153;28;20666;-61
2022/07/26 05:52:25;;;;;;;9.00;3.70;;;;;;;17.99;100.00;165272.91;5020927;28;20032;-62
2022/07/26 05:54:50;;;;;;;12.48;3.97;;;;;;;18.23;100.00;165335.28;5018720;28;20427;-62
2022/07/26 05:57:15;;;;;;;15.18;3.92;;;;;;;18.37;100.00;165373.22;5017218;28;20456;-61
2022/07/26 05:59:41;;;;;;;14.43;4.63;;;;;;;18.45;100.00;165393.59;5018445;28;20049;-61
2022/07/26 06:02:07;;;;;;;17.50;3.40;;;;;;;18.67;100.00;165451.88;5027653;28;20022;-61
2022/07/26 06:04:33;;;;;;;10.07;3.05;;;;;;;18.95;100.00;165523.81;5017894;28;20358;-62
2022/07/26 06:06:58;;;;;;;9.77;3.65;;;;;;;19.05;100.00;165549.59;5025010;28;20036;-61
2022/07/26 06:09:23;;;;;;;7.45;2.78;;;;;;;19.20;100.00;165590.28;5029000;28;20079;-61
2022/07/26 06:11:49;;;;;;;5.43;2.50;;;;;;;19.35;100.00;165629.66;5031097;28;20017;-61
2022/07/26 06:14:14;;;;;;;5.47;2.08;;;;;;;19.47;100.00;165660.88;5010353;28;20458;-62
2022/07/26 06:16:40;;;;;;;11.32;3.15;;;;;;;19.57;100.00;165686.63;5019336;28;20589;-62
2022/07/26 06:19:05;;;;;;;6.05;2.67;;;;;;;19.84;100.00;165758.63;5011566;28;20057;-61
2022/07/26 06:21:30;;;;;;;11.98;3.17;;;;;;;20.00;100.00;165799.28;5008754;28;20034;-61
2022/07/26 06:23:56;;;;;;;16.00;3.45;;;;;;;19.89;100.00;165772.16;5020721;28;20041;-61
2022/07/26 06:26:22;;;;;;;9.52;4.10;;;;;;;19.84;100.00;165758.63;5014211;28;20048;-61
2022/07/26 06:28:50;;;;;;;8.25;3.47;;;;;;;19.69;100.00;165717.84;5029030;28;20028;-61
2022/07/26 06:31:17;;;;;;;7.80;2.90;;;;;;;19.59;100.00;165693.41;5023047;28;20169;-61
2022/07/26 06:33:42;;;;;;;7.18;2.97;;;;;;;19.46;100.00;165659.47;5011397;28;20037;-61
2022/07/26 06:36:08;;;;;;;8.90;2.97;;;;;;;19.43;100.00;165651.38;5021296;28;20045;-62
2022/07/26 06:38:33;;;;;;;11.80;4.32;;;;;;;19.22;100.00;165595.72;5010943;28;20531;-61
2022/07/26 06:40:58;;;;;;;7.43;3.03;;;;;;;18.82;100.00;165489.84;5009175;28;20045;-62
2022/07/26 06:43:24;;;;;;;8.77;3.75;;;;;;;18.45;100.00;165392.22;5020436;28;20029;-61
2022/07/26 06:45:49;;;;;;;4.85;1.92;;;;;;;18.10;100.00;165300.03;5012217;28;20042;-62
2022/07/26 06:48:15;;;;;;;7.30;2.70;;;;;;;17.74;100.00;165207.81;5019145;28;20060;-62
2022/07/26 06:50:40;;;;;;;13.07;4.38;;;;;;;17.62;100.00;165173.91;5017175;28;20041;-61
2022/07/26 06:53:05;;;;;;;5.95;2.33;;;;;;;17.38;100.00;165112.94;5030451;28;20029;-58
2022/07/26 06:55:31;;;;;;;6.43;3.22;;;;;;;17.20;100.00;165065.47;5014289;28;20042;-57
2022/07/26 06:57:56;;;;;;;8.77;3.00;;;;;;;17.16;100.00;165053.31;5028609;28;20037;-57
2022/07/26 07:00:21;;;;;;;10.52;3.45;;;;;;;17.12;100.00;165045.16;5027667;28;20411;-57
2022/07/26 07:02:47;;;;;;;8.55;4.30;;;;;;;17.12;100.00;165043.81;5025617;28;20125;-57
2022/07/26 07:05:13;;;;;;;5.15;3.47;;;;;;;17.09;100.00;165037.00;5017844;28;20105;-57
2022/07/26 07:07:38;;;;;;;5.32;3.75;;;;;;;17.19;100.00;165061.41;5018320;28;20025;-58
2022/07/26 07:10:05;;;;;;;8.10;4.40;;;;;;;17.24;100.00;165074.94;5022424;28;20041;-57
2022/07/26 07:12:30;;;;;;;10.68;3.70;;;;;;;17.28;100.00;165087.16;5028378;28;20036;-58
2022/07/26 07:14:55;;;;;;;10.98;4.72;;;;;;;17.26;100.00;165080.38;5028734;28;20045;-57
2022/07/26 07:17:21;;;;;;;11.88;4.28;;;;;;;17.29;100.00;165089.88;5011549;28;20029;-57
2022/07/26 07:19:47;;;;;;;11.77;5.13;;;;;;;17.36;100.00;165107.50;5008174;28;20038;-58
2022/07/26 07:22:12;;;;;;;7.32;4.15;;;;;;;17.50;100.00;164582.59;5020964;28;20410;-57
2022/07/26 07:24:38;;;;;;;8.07;5.13;;;;;;;17.58;100.00;164597.28;5019878;28;20042;-56
2022/07/26 07:27:04;;;;;;;9.55;4.80;;;;;;;17.66;100.00;164808.88;5025199;28;20049;-58
2022/07/26 07:29:29;;;;;;;8.82;4.72;;;;;;;17.66;100.00;165186.13;5018596;28;20485;-57
2022/07/26 07:31:54;;;;;;;10.07;4.57;;;;;;;17.73;100.00;165205.09;5016564;28;20040;-58
2022/07/26 07:34:21;;;;;;;6.45;4.47;;;;;;;17.75;100.00;165210.53;5023293;28;20045;-58
2022/07/26 07:36:48;;;;;;;12.38;4.50;;;;;;;17.77;100.00;165215.91;5021962;28;20029;-58
2022/07/26 07:39:14;;;;;;;10.73;5.53;;;;;;;17.72;100.00;165202.38;5027390;28;20026;-58
2022/07/26 07:41:39;;;;;;;14.40;4.90;;;;;;;17.75;100.00;165210.53;5028385;28;20080;-58
2022/07/26 07:44:05;;;;;;;12.25;4.32;;;;;;;17.67;100.00;165188.84;5029768;28;20404;-57
2022/07/26 07:46:30;;;;;;;6.72;4.82;;;;;;;17.83;100.00;165230.84;5026046;28;20053;-58
2022/07/26 07:48:58;;;;;;;7.75;4.65;;;;;;;17.93;100.00;164390.03;5030608;28;20071;-57
2022/07/26 07:51:23;;;;;;;8.40;4.47;;;;;;;17.94;100.00;165259.31;5025103;28;20151;-59
2022/07/26 07:53:48;;;;;;;7.43;4.50;;;;;;;17.96;100.00;165263.41;5028603;28;20025;-58
2022/07/26 07:56:14;;;;;;;12.32;5.20;;;;;;;17.93;100.00;165256.59;5028542;28;20044;-58
2022/07/26 07:58:39;;;;;;;9.25;4.07;;;;;;;17.83;100.00;165229.50;5030019;28;20557;-58
2022/07/26 08:01:04;;;;;;;8.10;3.10;;;;;;;17.38;100.00;165112.94;5028494;28;20033;-58
2022/07/26 08:03:30;;;;;;;9.35;2.80;;;;;;;17.16;100.00;165053.31;5030046;28;20554;-58
2022/07/26 08:05:55;;;;;;;11.95;4.10;;;;;;;17.02;100.00;165016.72;5029423;28;20045;-58
2022/07/26 08:08:21;;;;;;;7.78;4.40;;;;;;;17.04;100.00;165022.16;5023932;28;20076;-58
2022/07/26 08:10:46;;;;;;;6.43;3.30;;;;;;;17.07;100.00;165031.63;5029503;28;20493;-58
2022/07/26 08:13:11;;;;;;;5.57;2.35;;;;;;;17.10;100.00;165039.72;5028726;28;20022;-58
2022/07/26 08:15:37;;;;;;;3.13;2.45;;;;;;;17.12;100.00;165045.16;5031882;28;20040;-58
2022/07/26 08:18:02;;;;;;;10.20;5.13;;;;;;;17.13;100.00;165046.50;5032807;28;20033;-58
2022/07/26 08:20:27;;;;;;;4.25;2.30;;;;;;;17.20;100.00;165065.47;5029953;28;20041;-58
2022/07/26 08:22:53;;;;;;;12.77;2.25;;;;;;;17.23;100.00;165072.28;5019420;28;20030;-58
2022/07/26 08:25:19;;;;;;;7.35;3.22;;;;;;;17.11;100.00;165042.44;5027213;28;20049;-58
2022/07/26 08:27:44;;;;;;;4.68;2.72;;;;;;;16.90;100.00;164986.81;5021587;28;20073;-58
2022/07/26 08:30:10;;;;;;;4.85;2.28;;;;;;;16.57;100.00;164898.81;5020886;28;20038;-58
2022/07/26 08:32:35;;;;;;;5.13;1.95;;;;;;;16.06;100.00;164766.03;5029127;28;20022;-57
2022/07/26 08:35:01;;;;;;;4.65;1.60;;;;;;;15.57;100.00;164637.34;5026249;28;20405;-58
2022/07/26 08:37:26;;;;;;;5.90;1.80;;;;;;;15.41;100.00;164595.41;5018712;28;20033;-57
2022/07/26 08:39:51;;;;;;;3.35;1.50;;;;;;;15.35;100.00;164579.16;5015377;28;20048;-58
2022/07/26 08:42:21;;;;;;;5.47;1.67;;;;;;;15.34;100.00;163610.63;5027336;28;20483;-57
2022/07/26 08:44:47;;;;;;;11.15;2.72;;;;;;;15.44;100.00;149310.13;5027791;28;20045;-57
2022/07/26 08:47:16;;;;;;;3.75;2.00;;;;;;;15.51;100.00;140813.25;5017778;28;20021;-58
2022/07/26 08:49:42;;;;;;;5.13;1.75;;;;;;;15.69;100.00;134830.50;5027174;28;20046;-58
2022/07/26 08:52:09;;;;;;;7.70;2.22;;;;;;;15.80;100.00;130608.50;5023364;28;20067;-58
2022/07/26 08:54:34;;;;;;;6.93;2.17;;;;;;;15.94;100.00;127807.22;5022036;28;20037;-58
2022/07/26 08:57:00;;;;;;;4.20;2.67;;;;;;;16.12;100.00;125723.56;5018596;28;20105;-57
2022/07/26 08:59:25;;;;;;;7.63;2.65;;;;;;;16.33;100.00;123290.47;5011339;28;20025;-57
2022/07/26 09:01:56;;;;;;;6.47;2.90;;;;;;;16.61;100.00;121224.22;5015547;28;20029;-58
2022/07/26 09:04:25;;;;;;;5.07;2.50;;;;;;;16.87;100.00;123395.84;5030352;28;20041;-58
2022/07/26 09:07:17;;;;;;;10.05;3.35;;;;;;;17.17;100.00;131953.50;5029375;28;20021;-58
2022/07/26 09:09:58;;;;;;;9.68;3.50;;;;;;;17.32;100.00;156885.44;5028272;28;20061;-58
2022/07/26 09:12:24;;;;;;;5.05;3.15;;;;;;;17.43;100.00;165126.47;5027506;28;20025;-58
2022/07/26 09:14:50;;;;;;;5.53;2.25;;;;;;;17.63;100.00;165177.97;5009800;28;20045;-58
2022/07/26 09:17:18;;;;;;;6.57;2.90;;;;;;;17.75;100.00;165210.53;5014883;28;20026;-58
2022/07/26 09:19:44;;;;;;;8.57;2.80;;;;;;;17.87;100.00;165240.31;5026459;28;20045;-58
2022/07/26 09:22:13;;;;;;;7.43;2.78;;;;;;;18.02;100.00;165279.72;5020228;28;20080;-58
2022/07/26 09:24:42;;;;;;;6.75;2.90;;;;;;;18.13;100.00;165308.19;5011656;28;20068;-59
2022/07/26 09:27:10;;;;;;;8.32;2.60;;;;;;;18.27;100.00;165346.16;5013482;28;20095;-59
2022/07/26 09:29:52;;;;;;;11.82;3.08;;;;;;;18.30;100.00;165352.91;5012156;28;20050;-59
2022/07/26 09:32:25;;;;;;;5.38;2.60;;;;;;;18.40;100.00;165380.00;5012665;28;20021;-60
2022/07/26 09:34:57;;;;;;;8.25;2.85;;;;;;;18.57;100.00;165424.78;5012500;28;20052;-59
2022/07/26 09:37:33;;;;;;;3.60;1.73;;;;;;;18.64;100.00;165443.78;5023257;28;20377;-59
2022/07/26 09:40:01;;;;;;;6.85;2.65;;;;;;;18.38;100.00;165374.63;5011137;28;20555;-59
2022/07/26 09:42:27;;;;;;;3.00;1.83;;;;;;;18.40;100.00;165380.00;5027012;28;20095;-59
2022/07/26 09:44:54;;;;;;;3.35;1.83;;;;;;;18.62;100.00;165438.34;5018563;28;20452;-59
2022/07/26 09:47:20;;;;;;;6.13;1.27;;;;;;;18.59;100.00;165430.19;5031495;28;20041;-59
2022/07/26 09:49:46;;;;;;;3.17;1.15;;;;;;;18.60;100.00;165432.91;5020911;28;20521;-59
2022/07/26 09:52:20;;;;;;;3.58;1.60;;;;;;;18.48;100.00;165400.38;5020514;28;20021;-57
2022/07/26 09:54:48;;;;;;;6.00;1.67;;;;;;;18.78;100.00;165480.38;5029992;28;20045;-57
2022/07/26 09:57:16;;;;;;;3.92;1.50;;;;;;;18.82;100.00;165491.25;5016165;28;20036;-56
2022/07/26 09:59:41;;;;;;;3.90;2.17;;;;;;;18.90;100.00;165511.56;5012335;28;20041;-57
2022/07/26 10:02:06;;;;;;;7.82;1.20;;;;;;;18.78;100.00;165479.03;5021547;28;20052;-57
2022/07/26 10:04:32;;;;;;;3.90;1.40;;;;;;;18.68;100.00;165454.59;5011131;28;20028;-57
2022/07/26 10:06:57;;;;;;;2.85;1.00;;;;;;;18.52;100.00;165411.19;5011627;28;20083;-57
2022/07/26 10:09:24;;;;;;;4.38;1.60;;;;;;;18.57;100.00;165424.78;5017026;28;20032;-57
2022/07/26 10:12:01;;;;;;;5.28;1.67;;;;;;;18.58;100.00;165426.13;5030722;28;20021;-57
2022/07/26 10:14:33;;;;;;;2.22;1.15;;;;;;;18.55;100.00;165419.34;5030195;28;20574;-57
2022/07/26 10:17:00;;;;;;;6.55;1.10;;;;;;;18.69;100.00;165457.31;5021680;28;20069;-57
2022/07/26 10:19:39;;;;;;;3.60;1.35;;;;;;;18.87;100.00;165503.47;5030082;28;20026;-57
2022/07/26 10:22:25;;;;;;;3.10;1.45;;;;;;;18.85;100.00;165498.00;5019873;28;20087;-57
2022/07/26 10:24:52;;;;;;;6.05;1.55;;;;;;;19.08;100.00;165557.75;5017939;28;20169;-57
2022/07/26 10:27:39;;;;;;;1.30;1.10;;;;;;;19.09;100.00;165560.47;5023802;28;20045;-57
2022/07/26 10:30:22;;;;;;;3.80;1.40;;;;;;;18.90;100.00;165510.22;5012693;28;20065;-59
2022/07/26 10:32:50;;;;;;;2.72;1.55;;;;;;;18.62;100.00;165438.34;5026941;28;20502;-59
2022/07/26 10:35:28;;;;;;;;;;;;;;;18.49;100.00;165403.09;5018166;28;20045;-60
2022/07/26 10:37:57;;;;;;;1.88;0.95;;;;;;;18.71;100.00;165462.75;5021950;28;19920;-59
2022/07/26 10:40:28;;;;;;;3.90;0.80;;;;;;;18.61;100.00;165435.63;5028785;28;20520;-60
2022/07/26 10:43:05;;;;;;;3.17;1.52;;;;;;;18.52;100.00;165411.19;5015089;28;20038;-60
2022/07/26 10:45:30;;;;;;;5.80;1.05;;;;;;;18.37;100.00;165373.22;5009519;28;20552;-57
2022/07/26 10:48:17;;;;;;;2.53;1.38;;;;;;;18.21;100.00;165331.22;5014392;28;20025;-57
2022/07/26 10:50:45;;;;;;;2.53;1.30;;;;;;;18.21;100.00;165331.22;5013724;28;20042;-57
2022/07/26 10:53:22;;;;;;;4.32;1.23;;;;;;;17.98;100.00;165270.22;5018545;28;20066;-56
2022/07/26 10:55:51;;;;;;;4.28;1.17;;;;;;;17.76;100.00;165213.19;5023337;28;20060;-57
2022/07/26 10:58:17;;;;;;;3.00;1.25;;;;;;;17.88;100.00;165243.03;5012252;28;20099;-57
2022/07/26 11:00:54;;;;;;;4.90;2.15;;;;;;;17.92;100.00;165253.88;5009887;28;20042;-57
2022/07/26 11:03:20;;;;;;;5.22;1.73;;;;;;;18.12;100.00;165305.47;5011352;28;20087;-57
2022/07/26 11:05:45;;;;;;;5.65;1.05;;;;;;;18.19;100.00;165324.44;5022045;28;20409;-57
2022/07/26 11:08:10;;;;;;;3.90;1.83;;;;;;;18.25;100.00;165340.72;5013467;28;20026;-57
2022/07/26 11:10:43;;;;;;;2.40;1.48;;;;;;;18.32;100.00;165359.69;5009969;28;20038;-57
2022/07/26 11:13:10;;;;;;;2.92;1.80;;;;;;;18.41;100.00;165381.38;5022183;28;20536;-57